Time;durP1;ratioP1;P1;durP2;ratioP2;P2;SDS_P1;SDS_P2;PMS_P1;PMS_P2;Temp;Humidity;BMP_temperature;BMP_pressure;BME280_temperature;BME280_humidity;BME280_pressure;Samples;Min_cycle;Max_cycle;Signal;HPM_P1;HPM_P2
2023/04/10 00:01:04;;;;;;;63.80;35.15;;;;;;;;;;6170996;28;20023;-80
2023/04/10 00:04:05;;;;;;;67.93;35.40;;;;;;;;;;6171932;28;20030;-80
2023/04/10 00:07:05;;;;;;;64.70;36.73;;;;;;;;;;6172049;28;20030;-80
2023/04/10 00:10:05;;;;;;;75.37;44.87;;;;;;;;;;6171792;28;20493;-80
2023/04/10 00:13:06;;;;;;;71.87;41.77;;;;;;;;;;6180494;28;20393;-80
2023/04/10 00:16:06;;;;;;;77.80;39.87;;;;;;;;;;6196078;28;20011;-80
2023/04/10 00:19:06;;;;;;;75.03;37.30;;;;;;;;;;6171867;28;20540;-80
2023/04/10 00:22:07;;;;;;;70.70;40.13;;;;;;;;;;6174911;28;20054;-80
2023/04/10 00:25:07;;;;;;;74.20;39.27;;;;;;;;;;6170952;28;20021;-79
2023/04/10 00:28:07;;;;;;;72.17;39.77;;;;;;;;;;6171390;28;20042;-80
2023/04/10 00:31:08;;;;;;;70.17;36.50;;;;;;;;;;6168509;28;20011;-79
2023/04/10 00:34:08;;;;;;;71.10;36.63;;;;;;;;;;6165859;28;20486;-80
2023/04/10 00:37:08;;;;;;;64.00;35.00;;;;;;;;;;6165645;28;20497;-80
2023/04/10 00:40:09;;;;;;;77.30;45.45;;;;;;;;;;6171234;28;20457;-79
2023/04/10 00:43:09;;;;;;;83.37;44.80;;;;;;;;;;6171081;28;20074;-81
2023/04/10 00:46:10;;;;;;;71.82;37.92;;;;;;;;;;6168720;28;20034;-81
2023/04/10 00:49:10;;;;;;;69.73;38.27;;;;;;;;;;6166528;28;20024;-80
2023/04/10 00:52:11;;;;;;;74.43;36.60;;;;;;;;;;6171244;28;20424;-80
2023/04/10 00:55:11;;;;;;;75.93;40.70;;;;;;;;;;6165378;28;20496;-80
2023/04/10 00:58:13;;;;;;;72.90;42.63;;;;;;;;;;6171337;28;20098;-80
2023/04/10 01:01:13;;;;;;;76.57;42.00;;;;;;;;;;6169575;28;20113;-80
2023/04/10 01:04:15;;;;;;;78.57;42.10;;;;;;;;;;6170754;28;20026;-77
2023/04/10 01:07:21;;;;;;;75.18;40.78;;;;;;;;;;6171219;28;20081;-81
2023/04/10 01:10:40;;;;;;;75.50;42.00;;;;;;;;;;6171103;28;20374;-80
2023/04/10 01:13:48;;;;;;;78.95;43.42;;;;;;;;;;6172816;28;20025;-81
2023/04/10 01:17:11;;;;;;;81.65;42.67;;;;;;;;;;6170418;28;20470;-81
2023/04/10 01:20:15;;;;;;;76.18;40.55;;;;;;;;;;6160164;28;20031;-81
2023/04/10 01:23:18;;;;;;;86.95;41.13;;;;;;;;;;6165765;28;20081;-81
2023/04/10 01:26:26;;;;;;;75.70;40.05;;;;;;;;;;6167904;28;20124;-80
2023/04/10 01:29:28;;;;;;;90.22;42.95;;;;;;;;;;6171396;28;20054;-81
2023/04/10 01:32:28;;;;;;;90.88;45.08;;;;;;;;;;6168320;28;20010;-80
2023/04/10 01:35:29;;;;;;;94.57;46.43;;;;;;;;;;6173994;28;20030;-80
2023/04/10 01:38:30;;;;;;;94.67;46.10;;;;;;;;;;6173563;28;20026;-80
2023/04/10 01:41:31;;;;;;;91.57;49.23;;;;;;;;;;6168175;28;20015;-80
2023/04/10 01:44:31;;;;;;;97.77;45.83;;;;;;;;;;6166366;28;20019;-80
2023/04/10 01:47:31;;;;;;;91.70;46.43;;;;;;;;;;6169922;28;20014;-81
2023/04/10 01:50:32;;;;;;;91.07;45.60;;;;;;;;;;6172247;28;20073;-80
2023/04/10 01:53:34;;;;;;;93.30;44.10;;;;;;;;;;6170282;28;20066;-81
2023/04/10 01:56:34;;;;;;;100.97;51.03;;;;;;;;;;6170121;28;20449;-80
2023/04/10 01:59:37;;;;;;;95.30;47.33;;;;;;;;;;6170903;28;20023;-81
2023/04/10 02:02:37;;;;;;;97.00;49.42;;;;;;;;;;6166861;28;20047;-81
2023/04/10 02:05:43;;;;;;;95.75;50.67;;;;;;;;;;6187088;28;20026;-81
2023/04/10 02:08:58;;;;;;;96.70;50.13;;;;;;;;;;6174332;28;20025;-81
2023/04/10 02:12:01;;;;;;;90.78;44.90;;;;;;;;;;6173616;28;20378;-81
2023/04/10 02:15:02;;;;;;;100.63;47.47;;;;;;;;;;6174749;28;20015;-80
2023/04/10 02:18:05;;;;;;;114.40;49.83;;;;;;;;;;6174352;28;20347;-80
2023/04/10 02:21:06;;;;;;;109.38;49.85;;;;;;;;;;6175604;28;20022;-81
2023/04/10 02:24:06;;;;;;;114.10;55.47;;;;;;;;;;6173720;28;20015;-80
2023/04/10 02:27:06;;;;;;;112.20;52.87;;;;;;;;;;6179826;28;20043;-81
2023/04/10 02:30:07;;;;;;;113.70;56.17;;;;;;;;;;6175033;28;20026;-81
2023/04/10 02:33:07;;;;;;;109.70;51.03;;;;;;;;;;6171412;28;20571;-80
2023/04/10 02:36:08;;;;;;;98.77;49.53;;;;;;;;;;6177497;28;20105;-80
2023/04/10 02:39:08;;;;;;;100.83;46.07;;;;;;;;;;6181452;28;20018;-79
2023/04/10 02:42:08;;;;;;;100.93;48.63;;;;;;;;;;6170781;28;20014;-81
2023/04/10 02:45:08;;;;;;;98.95;48.45;;;;;;;;;;6173578;28;20029;-79
2023/04/10 02:48:10;;;;;;;109.27;49.57;;;;;;;;;;6172435;28;20023;-81
2023/04/10 02:51:10;;;;;;;112.32;51.10;;;;;;;;;;6173084;28;20019;-80
2023/04/10 02:54:10;;;;;;;119.03;46.10;;;;;;;;;;6169707;28;20025;-81
2023/04/10 02:57:11;;;;;;;104.22;48.58;;;;;;;;;;6172612;28;20015;-81
2023/04/10 03:00:11;;;;;;;115.77;46.80;;;;;;;;;;6170080;28;20027;-80
2023/04/10 03:03:12;;;;;;;105.27;45.27;;;;;;;;;;6173413;28;20026;-81
2023/04/10 03:06:12;;;;;;;117.43;47.13;;;;;;;;;;6173805;28;20061;-80
2023/04/10 03:09:12;;;;;;;105.57;42.83;;;;;;;;;;6173679;28;20445;-81
2023/04/10 03:12:12;;;;;;;98.07;40.60;;;;;;;;;;6173956;28;20026;-80
2023/04/10 03:15:12;;;;;;;114.07;44.67;;;;;;;;;;6176274;28;20015;-81
2023/04/10 03:18:13;;;;;;;103.17;43.37;;;;;;;;;;6174206;28;20069;-80
2023/04/10 03:21:13;;;;;;;102.60;44.67;;;;;;;;;;6172158;28;20026;-80
2023/04/10 03:24:13;;;;;;;109.80;44.20;;;;;;;;;;6173387;28;20415;-81
2023/04/10 03:27:13;;;;;;;116.37;41.60;;;;;;;;;;6173361;28;20085;-80
2023/04/10 03:30:14;;;;;;;139.67;45.40;;;;;;;;;;6172175;28;20426;-81
2023/04/10 03:33:14;;;;;;;177.67;47.97;;;;;;;;;;6172858;28;20418;-80
2023/04/10 03:36:15;;;;;;;122.23;41.83;;;;;;;;;;6172118;28;20019;-81
2023/04/10 03:39:15;;;;;;;145.77;48.37;;;;;;;;;;6172435;28;20022;-81
2023/04/10 03:42:16;;;;;;;171.50;46.78;;;;;;;;;;6173235;28;20023;-81
2023/04/10 03:45:16;;;;;;;154.70;44.70;;;;;;;;;;6179529;28;20019;-81
2023/04/10 03:48:16;;;;;;;129.97;44.37;;;;;;;;;;6174530;28;20062;-81
2023/04/10 03:51:17;;;;;;;171.50;48.37;;;;;;;;;;6173125;28;20021;-81
2023/04/10 03:54:17;;;;;;;149.50;46.23;;;;;;;;;;6171459;28;20022;-81
2023/04/10 03:57:19;;;;;;;133.87;43.40;;;;;;;;;;6172463;28;20401;-80
2023/04/10 04:00:21;;;;;;;146.05;41.97;;;;;;;;;;6172279;28;20018;-80
2023/04/10 04:03:21;;;;;;;159.43;46.65;;;;;;;;;;6171668;28;20097;-81
2023/04/10 04:06:21;;;;;;;146.30;48.63;;;;;;;;;;6172023;28;20025;-81
2023/04/10 04:09:21;;;;;;;150.50;48.00;;;;;;;;;;6169181;28;20023;-81
2023/04/10 04:12:22;;;;;;;139.10;44.47;;;;;;;;;;6174721;28;20027;-81
2023/04/10 04:15:22;;;;;;;125.60;45.87;;;;;;;;;;6168446;28;20015;-81
2023/04/10 04:18:22;;;;;;;156.80;48.40;;;;;;;;;;6170135;28;20033;-81
2023/04/10 04:21:23;;;;;;;149.93;45.85;;;;;;;;;;6171894;28;20455;-81
2023/04/10 04:24:23;;;;;;;117.77;46.90;;;;;;;;;;6170250;28;20023;-81
2023/04/10 04:27:23;;;;;;;121.97;48.20;;;;;;;;;;6170232;28;20050;-81
2023/04/10 04:30:23;;;;;;;140.73;48.10;;;;;;;;;;6172569;28;20033;-80
2023/04/10 04:33:24;;;;;;;121.47;44.10;;;;;;;;;;6171578;28;20117;-81
2023/04/10 04:36:24;;;;;;;115.63;43.97;;;;;;;;;;6170908;28;20499;-81
2023/04/10 04:39:24;;;;;;;125.60;42.77;;;;;;;;;;6171404;28;20030;-80
2023/04/10 04:42:25;;;;;;;119.13;47.30;;;;;;;;;;6168527;28;20057;-80
2023/04/10 04:45:25;;;;;;;105.60;41.80;;;;;;;;;;6185795;28;20023;-82
2023/04/10 04:48:25;;;;;;;117.17;45.63;;;;;;;;;;6170924;28;20385;-78
2023/04/10 04:51:26;;;;;;;111.17;42.57;;;;;;;;;;6170631;28;20106;-82
2023/04/10 04:54:26;;;;;;;90.37;39.80;;;;;;;;;;6156453;28;20023;-80
2023/04/10 04:57:26;;;;;;;109.18;43.60;;;;;;;;;;6165409;28;20496;-81
2023/04/10 05:00:26;;;;;;;90.57;38.60;;;;;;;;;;6167314;28;20029;-80
2023/04/10 05:03:29;;;;;;;116.13;46.80;;;;;;;;;;6169228;28;20375;-80
2023/04/10 05:06:30;;;;;;;105.57;46.67;;;;;;;;;;6164733;28;20109;-80
2023/04/10 05:09:30;;;;;;;116.80;53.00;;;;;;;;;;6184652;28;20034;-82
2023/04/10 05:12:31;;;;;;;112.37;45.93;;;;;;;;;;6169311;28;20637;-81
2023/04/10 05:15:31;;;;;;;102.03;45.53;;;;;;;;;;6169460;28;20034;-81
2023/04/10 05:18:31;;;;;;;105.10;48.83;;;;;;;;;;6169252;28;20026;-81
2023/04/10 05:21:32;;;;;;;104.85;43.55;;;;;;;;;;6169467;28;20474;-81
2023/04/10 05:24:32;;;;;;;95.90;45.67;;;;;;;;;;6169294;28;20027;-81
2023/04/10 05:27:32;;;;;;;101.07;46.20;;;;;;;;;;6169512;28;20105;-82
2023/04/10 05:30:32;;;;;;;88.80;40.30;;;;;;;;;;6170878;28;20076;-80
2023/04/10 05:33:33;;;;;;;81.95;39.28;;;;;;;;;;6168255;28;20118;-81
2023/04/10 05:36:34;;;;;;;90.50;41.10;;;;;;;;;;6169280;28;20023;-80
2023/04/10 05:39:34;;;;;;;97.70;42.80;;;;;;;;;;6168430;28;20102;-80
2023/04/10 05:42:34;;;;;;;96.15;44.92;;;;;;;;;;6174178;28;20076;-79
2023/04/10 05:45:34;;;;;;;93.93;42.37;;;;;;;;;;6173430;28;20474;-81
2023/04/10 05:48:34;;;;;;;82.43;35.83;;;;;;;;;;6169469;28;20072;-80
2023/04/10 05:51:34;;;;;;;88.78;42.22;;;;;;;;;;6175277;28;20032;-81
2023/04/10 05:54:35;;;;;;;91.53;44.80;;;;;;;;;;6175700;28;20031;-81
2023/04/10 05:57:35;;;;;;;92.73;44.50;;;;;;;;;;6175130;28;20027;-81
2023/04/10 06:00:35;;;;;;;84.72;43.60;;;;;;;;;;6180036;28;20473;-82
2023/04/10 06:03:36;;;;;;;93.07;43.77;;;;;;;;;;6174952;28;20050;-82
2023/04/10 06:06:36;;;;;;;88.95;43.10;;;;;;;;;;6173981;28;20404;-81
2023/04/10 06:09:36;;;;;;;84.55;41.65;;;;;;;;;;6174205;28;20019;-81
2023/04/10 06:12:36;;;;;;;87.57;39.83;;;;;;;;;;6171527;28;20048;-81
2023/04/10 06:15:36;;;;;;;83.60;43.07;;;;;;;;;;6173104;28;20018;-81
2023/04/10 06:18:37;;;;;;;76.97;38.67;;;;;;;;;;6172411;28;20026;-81
2023/04/10 06:21:37;;;;;;;74.25;36.95;;;;;;;;;;6170901;28;20076;-80
2023/04/10 06:24:37;;;;;;;84.80;40.38;;;;;;;;;;6176739;28;20054;-87
2023/04/10 06:27:37;;;;;;;80.20;39.27;;;;;;;;;;6186785;28;20050;-89
2023/04/10 06:30:38;;;;;;;81.40;39.75;;;;;;;;;;6171194;28;20023;-86
2023/04/10 06:33:38;;;;;;;73.10;37.37;;;;;;;;;;6172957;28;20032;-85
2023/04/10 06:36:38;;;;;;;97.83;46.97;;;;;;;;;;6172226;28;20489;-83
2023/04/10 06:39:38;;;;;;;93.80;46.30;;;;;;;;;;6172257;28;20018;-84
2023/04/10 06:42:40;;;;;;;81.57;41.77;;;;;;;;;;6172625;28;20026;-83
2023/04/10 06:45:40;;;;;;;85.78;43.83;;;;;;;;;;6175972;28;20109;-82
2023/04/10 06:48:40;;;;;;;89.77;49.10;;;;;;;;;;6172271;28;20030;-83
2023/04/10 06:51:40;;;;;;;89.10;46.13;;;;;;;;;;6173829;28;20389;-82
2023/04/10 06:54:42;;;;;;;100.57;46.53;;;;;;;;;;6174553;28;20106;-82
2023/04/10 06:57:42;;;;;;;108.85;52.28;;;;;;;;;;6170866;28;20022;-82
2023/04/10 07:00:42;;;;;;;82.20;39.77;;;;;;;;;;6169876;28;20030;-84
2023/04/10 07:03:42;;;;;;;98.22;46.83;;;;;;;;;;6169917;28;20055;-83
2023/04/10 07:06:42;;;;;;;91.20;46.67;;;;;;;;;;6167494;28;20437;-83
2023/04/10 07:09:43;;;;;;;87.55;42.60;;;;;;;;;;6170591;28;20098;-82
2023/04/10 07:12:43;;;;;;;85.60;40.73;;;;;;;;;;6181824;28;20390;-84
2023/04/10 07:15:43;;;;;;;102.13;53.57;;;;;;;;;;6170274;28;20022;-83
2023/04/10 07:18:45;;;;;;;94.63;48.63;;;;;;;;;;6170220;28;20019;-84
2023/04/10 07:21:48;;;;;;;99.72;46.15;;;;;;;;;;6169682;28;20022;-82
2023/04/10 07:24:49;;;;;;;89.60;44.25;;;;;;;;;;6171074;28;20747;-83
2023/04/10 07:27:49;;;;;;;80.25;44.63;;;;;;;;;;6170261;28;20082;-83
2023/04/10 07:30:49;;;;;;;87.00;43.97;;;;;;;;;;6173393;28;20580;-82
2023/04/10 07:33:49;;;;;;;84.37;43.33;;;;;;;;;;6172842;28;20065;-82
2023/04/10 07:36:50;;;;;;;85.33;43.73;;;;;;;;;;6172127;28;20015;-82
2023/04/10 07:39:50;;;;;;;87.63;44.10;;;;;;;;;;6171529;28;20030;-81
2023/04/10 07:42:50;;;;;;;91.73;46.37;;;;;;;;;;6169740;28;20022;-82
2023/04/10 07:45:51;;;;;;;84.50;40.47;;;;;;;;;;6168734;28;20027;-82
2023/04/10 07:48:51;;;;;;;71.33;38.57;;;;;;;;;;6171480;28;20022;-82
2023/04/10 07:51:52;;;;;;;90.37;43.03;;;;;;;;;;6171372;28;20027;-82
2023/04/10 07:54:52;;;;;;;72.65;37.83;;;;;;;;;;6170984;28;20015;-82
2023/04/10 07:57:52;;;;;;;72.60;39.13;;;;;;;;;;6170443;28;20490;-82
2023/04/10 08:00:52;;;;;;;68.40;39.63;;;;;;;;;;6169490;28;20027;-81
2023/04/10 08:03:54;;;;;;;63.37;33.70;;;;;;;;;;6169418;28;20023;-81
2023/04/10 08:06:54;;;;;;;66.95;36.42;;;;;;;;;;6184663;28;20037;-81
2023/04/10 08:09:54;;;;;;;61.63;32.77;;;;;;;;;;6168606;28;20027;-81
2023/04/10 08:12:55;;;;;;;62.27;36.37;;;;;;;;;;6168530;28;20019;-80
2023/04/10 08:15:55;;;;;;;64.90;34.73;;;;;;;;;;6169207;28;20023;-80
2023/04/10 08:18:56;;;;;;;65.90;34.00;;;;;;;;;;6168281;28;20516;-80
2023/04/10 08:21:56;;;;;;;58.22;35.03;;;;;;;;;;6168243;28;20400;-81
2023/04/10 08:24:56;;;;;;;60.70;32.43;;;;;;;;;;6170460;28;20054;-80
2023/04/10 08:27:59;;;;;;;62.77;32.57;;;;;;;;;;6169091;28;20077;-80
2023/04/10 08:30:59;;;;;;;59.50;33.75;;;;;;;;;;6169980;28;20034;-81
2023/04/10 08:33:59;;;;;;;56.90;33.92;;;;;;;;;;6170851;28;20029;-79
2023/04/10 08:37:01;;;;;;;55.17;30.90;;;;;;;;;;6171677;28;20023;-79
2023/04/10 08:40:01;;;;;;;58.45;32.20;;;;;;;;;;6171548;28;20033;-80
2023/04/10 08:43:01;;;;;;;58.53;33.73;;;;;;;;;;6171220;28;20023;-82
2023/04/10 08:46:01;;;;;;;60.17;37.07;;;;;;;;;;6170914;28;20386;-79
2023/04/10 08:49:02;;;;;;;60.20;33.00;;;;;;;;;;6170171;28;20382;-79
2023/04/10 08:52:05;;;;;;;53.87;33.60;;;;;;;;;;6171596;28;20031;-78
2023/04/10 08:55:07;;;;;;;54.10;32.47;;;;;;;;;;6168062;28;20867;-80
2023/04/10 08:58:07;;;;;;;51.03;29.17;;;;;;;;;;6169940;28;20025;-79
2023/04/10 09:01:08;;;;;;;53.47;31.47;;;;;;;;;;6169759;28;20050;-78
2023/04/10 09:04:10;;;;;;;50.77;30.57;;;;;;;;;;6169351;28;20158;-79
2023/04/10 09:07:10;;;;;;;47.58;26.17;;;;;;;;;;6169436;28;20270;-79
2023/04/10 09:10:10;;;;;;;45.58;25.48;;;;;;;;;;6165239;28;20516;-78
2023/04/10 09:13:11;;;;;;;43.03;27.97;;;;;;;;;;6168740;28;20014;-79
2023/04/10 09:16:12;;;;;;;45.50;26.87;;;;;;;;;;6168216;28;20026;-79
2023/04/10 09:19:12;;;;;;;48.92;27.98;;;;;;;;;;6169191;28;20029;-79
2023/04/10 09:22:12;;;;;;;49.23;29.10;;;;;;;;;;6169130;28;20481;-79
2023/04/10 09:25:30;;;;;;;52.20;27.87;;;;;;;;;;6163799;28;20058;-80
2023/04/10 09:28:31;;;;;;;49.70;27.45;;;;;;;;;;6172176;28;20553;-79
2023/04/10 09:31:35;;;;;;;52.55;28.33;;;;;;;;;;6172611;28;20041;-80
2023/04/10 09:34:51;;;;;;;51.30;28.77;;;;;;;;;;6168083;28;20022;-79
2023/04/10 09:37:51;;;;;;;47.72;28.15;;;;;;;;;;6168418;28;20030;-79
2023/04/10 09:40:51;;;;;;;50.43;28.83;;;;;;;;;;6169739;28;20037;-79
2023/04/10 09:44:10;;;;;;;45.97;26.47;;;;;;;;;;6166787;28;20029;-79
2023/04/10 09:47:14;;;;;;;46.45;25.95;;;;;;;;;;6159521;28;20030;-79
2023/04/10 09:50:14;;;;;;;42.60;25.38;;;;;;;;;;6163613;28;20042;-79
2023/04/10 09:53:16;;;;;;;42.30;26.10;;;;;;;;;;6163119;28;20545;-79
2023/04/10 09:56:16;;;;;;;44.25;24.98;;;;;;;;;;6163259;28;20026;-79
2023/04/10 09:59:17;;;;;;;43.87;25.27;;;;;;;;;;6160076;28;20055;-80
2023/04/10 10:02:18;;;;;;;50.60;28.87;;;;;;;;;;6160252;28;20022;-75
2023/04/10 10:05:21;;;;;;;46.67;26.60;;;;;;;;;;6167899;28;20349;-76
2023/04/10 10:08:22;;;;;;;46.25;26.85;;;;;;;;;;6168297;28;21279;-76
2023/04/10 10:11:24;;;;;;;46.17;27.57;;;;;;;;;;6168165;28;20027;-75
2023/04/10 10:14:26;;;;;;;49.15;28.25;;;;;;;;;;6167645;28;20426;-76
2023/04/10 10:17:29;;;;;;;54.17;28.75;;;;;;;;;;6179006;28;20019;-76
2023/04/10 10:20:30;;;;;;;51.00;26.48;;;;;;;;;;6170570;28;20026;-76
2023/04/10 10:23:30;;;;;;;49.80;26.42;;;;;;;;;;6175800;28;20030;-76
2023/04/10 10:26:33;;;;;;;48.57;26.77;;;;;;;;;;6185710;28;20465;-76
2023/04/10 10:29:35;;;;;;;48.33;26.15;;;;;;;;;;6174166;28;20026;-76
2023/04/10 10:32:35;;;;;;;46.97;26.92;;;;;;;;;;6169810;28;20027;-76
2023/04/10 10:35:36;;;;;;;49.10;27.73;;;;;;;;;;6189875;28;20278;-76
2023/04/10 10:38:40;;;;;;;46.60;26.20;;;;;;;;;;6178707;28;20042;-76
2023/04/10 10:41:43;;;;;;;45.30;25.50;;;;;;;;;;6173664;28;20027;-76
2023/04/10 10:44:47;;;;;;;45.45;25.85;;;;;;;;;;6171222;28;20055;-76
2023/04/10 10:47:52;;;;;;;50.17;27.60;;;;;;;;;;6189128;28;20109;-76
2023/04/10 10:50:52;;;;;;;41.15;25.80;;;;;;;;;;6188833;28;20058;-76
2023/04/10 10:53:52;;;;;;;41.80;25.87;;;;;;;;;;6188505;28;20362;-76
2023/04/10 10:56:53;;;;;;;48.20;26.17;;;;;;;;;;6171236;28;20030;-76
2023/04/10 10:59:53;;;;;;;38.97;24.57;;;;;;;;;;6171365;28;20481;-76
2023/04/10 11:03:11;;;;;;;42.87;25.07;;;;;;;;;;6170906;28;20061;-76
2023/04/10 11:06:13;;;;;;;40.58;24.15;;;;;;;;;;6167393;28;20073;-76
2023/04/10 11:09:36;;;;;;;46.92;26.23;;;;;;;;;;6172465;28;20043;-74
2023/04/10 11:12:56;;;;;;;40.85;25.63;;;;;;;;;;6173320;28;20035;-76
2023/04/10 11:15:57;;;;;;;39.60;23.27;;;;;;;;;;6171033;28;20050;-75
2023/04/10 11:19:07;;;;;;;48.75;27.38;;;;;;;;;;6172989;28;20537;-75
2023/04/10 11:22:08;;;;;;;42.58;25.90;;;;;;;;;;6172577;28;20038;-75
2023/04/10 11:25:09;;;;;;;43.77;24.90;;;;;;;;;;6172763;28;20405;-75
2023/04/10 11:28:09;;;;;;;37.60;25.03;;;;;;;;;;6171503;28;20382;-75
2023/04/10 11:31:13;;;;;;;37.67;22.93;;;;;;;;;;6171085;28;20122;-76
2023/04/10 11:34:14;;;;;;;42.15;24.17;;;;;;;;;;6172532;28;20037;-75
2023/04/10 11:37:21;;;;;;;30.48;20.38;;;;;;;;;;6171305;28;20015;-75
2023/04/10 11:40:22;;;;;;;36.50;22.05;;;;;;;;;;6173570;28;20027;-75
2023/04/10 11:43:22;;;;;;;33.10;19.30;;;;;;;;;;6171656;28;20038;-75
2023/04/10 11:46:22;;;;;;;34.13;20.43;;;;;;;;;;6172190;28;20030;-75
2023/04/10 11:49:23;;;;;;;30.30;18.30;;;;;;;;;;6172586;28;20152;-75
2023/04/10 11:52:24;;;;;;;28.52;17.92;;;;;;;;;;6172759;28;20084;-75
2023/04/10 11:55:38;;;;;;;29.10;19.53;;;;;;;;;;6186763;28;20472;-76
2023/04/10 11:58:38;;;;;;;26.65;18.90;;;;;;;;;;6170622;28;20035;-76
2023/04/10 12:01:39;;;;;;;34.63;20.23;;;;;;;;;;6187117;28;20089;-76
2023/04/10 12:04:40;;;;;;;34.30;19.85;;;;;;;;;;6171708;28;20027;-76
2023/04/10 12:07:41;;;;;;;29.25;18.73;;;;;;;;;;6186976;28;20405;-77
2023/04/10 12:10:45;;;;;;;26.83;16.67;;;;;;;;;;6168147;28;20110;-76
2023/04/10 12:13:46;;;;;;;26.20;16.63;;;;;;;;;;6171536;28;20015;-76
2023/04/10 12:16:47;;;;;;;27.38;18.77;;;;;;;;;;6171609;28;20045;-76
2023/04/10 12:19:48;;;;;;;29.00;17.92;;;;;;;;;;6172601;28;20031;-76
2023/04/10 12:22:48;;;;;;;29.27;16.90;;;;;;;;;;6171472;28;20026;-76
2023/04/10 12:25:49;;;;;;;24.30;16.73;;;;;;;;;;6185604;28;20047;-76
2023/04/10 12:28:51;;;;;;;21.45;15.30;;;;;;;;;;6170260;28;20118;-76
2023/04/10 12:31:51;;;;;;;21.60;14.80;;;;;;;;;;6170895;28;20034;-76
2023/04/10 12:34:52;;;;;;;25.47;14.77;;;;;;;;;;6168109;28;20400;-75
2023/04/10 12:37:53;;;;;;;21.55;14.88;;;;;;;;;;6168788;28;20049;-76
2023/04/10 12:40:57;;;;;;;27.33;15.90;;;;;;;;;;6170699;28;20025;-76
2023/04/10 12:44:11;;;;;;;23.17;14.38;;;;;;;;;;6187664;28;20023;-76
2023/04/10 12:47:11;;;;;;;21.50;14.50;;;;;;;;;;6172320;28;20958;-76
2023/04/10 12:50:16;;;;;;;18.40;12.70;;;;;;;;;;6178715;28;20055;-76
2023/04/10 12:53:16;;;;;;;27.88;14.98;;;;;;;;;;6171757;28;20050;-76
2023/04/10 12:56:19;;;;;;;21.83;13.73;;;;;;;;;;6174320;28;20041;-76
2023/04/10 12:59:19;;;;;;;19.65;13.63;;;;;;;;;;6174867;28;20109;-76
2023/04/10 13:02:20;;;;;;;22.40;13.95;;;;;;;;;;6170177;28;20153;-76
2023/04/10 13:05:20;;;;;;;17.93;13.00;;;;;;;;;;6169348;28;20041;-76
2023/04/10 13:08:21;;;;;;;21.07;12.73;;;;;;;;;;6163313;28;20306;-76
2023/04/10 13:11:22;;;;;;;19.37;12.87;;;;;;;;;;6172265;28;20512;-76
2023/04/10 13:14:22;;;;;;;20.93;13.63;;;;;;;;;;6166478;28;20049;-76
2023/04/10 13:17:23;;;;;;;21.42;13.38;;;;;;;;;;6165652;28;20023;-76
2023/04/10 13:20:23;;;;;;;27.35;15.63;;;;;;;;;;6166385;28;20569;-76
2023/04/10 13:23:24;;;;;;;22.57;14.50;;;;;;;;;;6165338;28;20027;-76
2023/04/10 13:26:24;;;;;;;22.83;14.30;;;;;;;;;;6167110;28;20417;-76
2023/04/10 13:29:24;;;;;;;22.53;15.47;;;;;;;;;;6169289;28;20023;-76
2023/04/10 13:32:24;;;;;;;26.13;15.55;;;;;;;;;;6173758;28;20026;-76
2023/04/10 13:35:24;;;;;;;22.33;14.57;;;;;;;;;;6170229;28;20050;-76
2023/04/10 13:38:25;;;;;;;18.07;12.57;;;;;;;;;;6169627;28;20036;-76
2023/04/10 13:41:25;;;;;;;21.70;13.80;;;;;;;;;;6169215;28;20026;-76
2023/04/10 13:44:25;;;;;;;18.20;12.43;;;;;;;;;;6170702;28;20491;-76
2023/04/10 13:47:25;;;;;;;20.17;13.50;;;;;;;;;;6190711;28;20109;-76
2023/04/10 13:50:26;;;;;;;19.00;13.90;;;;;;;;;;6168612;28;20114;-76
2023/04/10 13:53:26;;;;;;;21.43;14.00;;;;;;;;;;6166202;28;20488;-76
2023/04/10 13:56:26;;;;;;;18.98;13.25;;;;;;;;;;6175238;28;20274;-76
2023/04/10 13:59:26;;;;;;;20.50;13.00;;;;;;;;;;6173153;28;20390;-76
2023/04/10 14:02:30;;;;;;;19.55;12.18;;;;;;;;;;6174673;28;20029;-76
2023/04/10 14:05:30;;;;;;;21.98;13.38;;;;;;;;;;6179183;28;20022;-76
2023/04/10 14:08:30;;;;;;;19.17;13.50;;;;;;;;;;6176350;28;20030;-76
2023/04/10 14:11:30;;;;;;;22.33;13.27;;;;;;;;;;6176007;28;20406;-76
2023/04/10 14:14:30;;;;;;;23.47;12.93;;;;;;;;;;6176406;28;20113;-76
2023/04/10 14:17:31;;;;;;;20.45;13.20;;;;;;;;;;6182011;28;20081;-76
2023/04/10 14:20:31;;;;;;;17.60;12.63;;;;;;;;;;6175727;28;20214;-76
2023/04/10 14:23:31;;;;;;;25.13;14.50;;;;;;;;;;6179802;28;20022;-76
2023/04/10 14:26:31;;;;;;;24.37;14.20;;;;;;;;;;6179569;28;20541;-76
2023/04/10 14:29:31;;;;;;;19.67;13.35;;;;;;;;;;6184389;28;20105;-76
2023/04/10 14:32:31;;;;;;;19.95;12.95;;;;;;;;;;6179411;28;20027;-76
2023/04/10 14:35:32;;;;;;;23.58;13.18;;;;;;;;;;6178525;28;20022;-76
2023/04/10 14:38:32;;;;;;;19.23;14.30;;;;;;;;;;6179793;28;20015;-76
2023/04/10 14:41:32;;;;;;;19.30;13.67;;;;;;;;;;6176961;28;20105;-76
2023/04/10 14:44:32;;;;;;;24.17;15.80;;;;;;;;;;6173668;28;20110;-76
2023/04/10 14:47:34;;;;;;;27.50;16.87;;;;;;;;;;6174669;28;20027;-76
2023/04/10 14:50:34;;;;;;;25.63;16.13;;;;;;;;;;6176119;28;20703;-76
2023/04/10 14:53:35;;;;;;;25.77;18.23;;;;;;;;;;6175691;28;20011;-76
2023/04/10 14:56:35;;;;;;;31.60;19.83;;;;;;;;;;6189221;28;20019;-76
2023/04/10 14:59:35;;;;;;;28.70;19.27;;;;;;;;;;6172833;28;20053;-75
2023/04/10 15:02:37;;;;;;;32.67;21.57;;;;;;;;;;6174897;28;20026;-76
2023/04/10 15:05:37;;;;;;;30.77;21.02;;;;;;;;;;6172776;28;20077;-75
2023/04/10 15:08:37;;;;;;;44.97;23.57;;;;;;;;;;6174628;28;20054;-75
2023/04/10 15:11:37;;;;;;;39.08;24.05;;;;;;;;;;6184599;28;20114;-75
2023/04/10 15:14:38;;;;;;;39.00;23.88;;;;;;;;;;6162852;28;20038;-75
2023/04/10 15:17:38;;;;;;;33.87;23.00;;;;;;;;;;6173548;28;20105;-75
2023/04/10 15:20:38;;;;;;;35.40;22.70;;;;;;;;;;6174774;28;20034;-75
2023/04/10 15:23:38;;;;;;;36.77;24.27;;;;;;;;;;6176351;28;20118;-76
2023/04/10 15:26:42;;;;;;;35.03;24.20;;;;;;;;;;6173017;28;20234;-75
2023/04/10 15:29:42;;;;;;;35.10;21.90;;;;;;;;;;6175236;28;20038;-76
2023/04/10 15:32:42;;;;;;;37.00;20.45;;;;;;;;;;6180698;28;20030;-76
2023/04/10 15:35:51;;;;;;;18.60;13.00;;;;;;;;;;6179907;28;20451;-76
2023/04/10 15:38:51;;;;;;;15.35;9.60;;;;;;;;;;6176317;28;20023;-75
2023/04/10 15:41:52;;;;;;;15.73;8.10;;;;;;;;;;6179544;28;20033;-76
2023/04/10 15:44:52;;;;;;;24.80;11.67;;;;;;;;;;6173856;28;20510;-76
2023/04/10 15:47:52;;;;;;;26.03;12.57;;;;;;;;;;6177312;28;20029;-76
2023/04/10 15:50:52;;;;;;;35.28;15.77;;;;;;;;;;6173316;28;20023;-75
2023/04/10 15:53:55;;;;;;;23.00;13.13;;;;;;;;;;6183332;28;20026;-77
2023/04/10 15:56:56;;;;;;;18.58;11.00;;;;;;;;;;6176709;28;20433;-77
2023/04/10 15:59:59;;;;;;;25.13;12.43;;;;;;;;;;6185282;28;20022;-77
2023/04/10 16:02:59;;;;;;;24.05;12.82;;;;;;;;;;6181130;28;20057;-77
2023/04/10 16:06:02;;;;;;;31.70;15.33;;;;;;;;;;6178132;28;20062;-77
2023/04/10 16:09:03;;;;;;;20.33;11.95;;;;;;;;;;6175159;28;20056;-77
2023/04/10 16:12:03;;;;;;;22.55;12.25;;;;;;;;;;6171640;28;20042;-78
2023/04/10 16:15:06;;;;;;;23.10;12.60;;;;;;;;;;6167613;28;20022;-78
2023/04/10 16:18:07;;;;;;;22.83;11.93;;;;;;;;;;6172569;28;20019;-79
2023/04/10 16:21:07;;;;;;;21.33;11.97;;;;;;;;;;6172358;28;20037;-79
2023/04/10 16:24:08;;;;;;;20.47;12.60;;;;;;;;;;6171494;28;20384;-79
2023/04/10 16:27:08;;;;;;;16.15;10.63;;;;;;;;;;6169623;28;20046;-80
2023/04/10 16:30:10;;;;;;;17.43;10.53;;;;;;;;;;6168306;28;20571;-80
2023/04/10 16:33:11;;;;;;;17.95;12.25;;;;;;;;;;6171189;28;20401;-80
2023/04/10 16:36:12;;;;;;;13.60;9.33;;;;;;;;;;6170234;28;20031;-80
2023/04/10 16:39:12;;;;;;;20.77;12.27;;;;;;;;;;6189944;28;20381;-80
2023/04/10 16:42:12;;;;;;;24.90;14.03;;;;;;;;;;6170976;28;20021;-79
2023/04/10 16:45:14;;;;;;;25.53;14.13;;;;;;;;;;6176482;28;20022;-80
2023/04/10 16:48:14;;;;;;;56.25;27.63;;;;;;;;;;6173276;28;20109;-80
2023/04/10 16:51:15;;;;;;;35.75;18.40;;;;;;;;;;6172560;28;20027;-80
2023/04/10 16:54:15;;;;;;;25.80;15.82;;;;;;;;;;6172705;28;20102;-79
2023/04/10 16:57:15;;;;;;;30.87;17.27;;;;;;;;;;6177926;28;20018;-79
2023/04/10 17:00:16;;;;;;;31.00;18.97;;;;;;;;;;6170705;28;20082;-80
2023/04/10 17:03:17;;;;;;;47.40;27.10;;;;;;;;;;6170642;28;20078;-79
2023/04/10 17:06:17;;;;;;;51.70;29.83;;;;;;;;;;6168064;28;20428;-79
2023/04/10 17:09:18;;;;;;;52.73;26.57;;;;;;;;;;6183671;28;20086;-79
2023/04/10 17:12:18;;;;;;;135.33;62.50;;;;;;;;;;6169696;28;20097;-78
2023/04/10 17:15:20;;;;;;;83.53;43.20;;;;;;;;;;6168376;28;20026;-79
2023/04/10 17:18:21;;;;;;;53.97;31.60;;;;;;;;;;6167317;28;20069;-79
2023/04/10 17:21:21;;;;;;;42.80;26.23;;;;;;;;;;6168370;28;20027;-79
2023/04/10 17:24:22;;;;;;;52.83;34.07;;;;;;;;;;6169363;28;20029;-78
2023/04/10 17:27:22;;;;;;;51.85;33.05;;;;;;;;;;6165348;28;20061;-79
2023/04/10 17:30:22;;;;;;;56.70;33.80;;;;;;;;;;6168334;28;20121;-79